sensor_id;sensor_type;location;lat;lon;timestamp;pressure;altitude;pressure_sealevel;temperature;humidity
41686;BME280;27370;42.764;23.432;2023-12-20T00:15:27;95986.28;;;-3.45;100.00
41686;BME280;27370;42.764;23.432;2023-12-20T00:31:07;95957.88;;;-3.14;100.00
41686;BME280;27370;42.764;23.432;2023-12-20T00:33:32;95955.28;;;-3.62;100.00
41686;BME280;27370;42.764;23.432;2023-12-20T00:35:58;95889.19;;;-3.93;100.00
41686;BME280;27370;42.764;23.432;2023-12-20T00:38:23;95953.97;;;-3.25;100.00
41686;BME280;27370;42.764;23.432;2023-12-20T00:40:49;95926.88;;;-3.04;100.00
41686;BME280;27370;42.764;23.432;2023-12-20T00:43:15;95945.88;;;-2.77;100.00
41686;BME280;27370;42.764;23.432;2023-12-20T00:45:41;95948.69;;;-2.73;100.00
41686;BME280;27370;42.764;23.432;2023-12-20T00:48:06;95934.97;;;-2.75;100.00
41686;BME280;27370;42.764;23.432;2023-12-20T00:50:32;95953.22;;;-2.73;100.00
41686;BME280;27370;42.764;23.432;2023-12-20T00:52:57;95890.88;;;-3.05;100.00
41686;BME280;27370;42.764;23.432;2023-12-20T00:55:23;95949.03;;;-2.66;100.00
41686;BME280;27370;42.764;23.432;2023-12-20T00:57:48;95943.41;;;-2.64;100.00
41686;BME280;27370;42.764;23.432;2023-12-20T01:00:14;95929.03;;;-2.55;100.00
41686;BME280;27370;42.764;23.432;2023-12-20T01:02:39;95911.91;;;-2.57;100.00
41686;BME280;27370;42.764;23.432;2023-12-20T01:05:06;95926.41;;;-3.06;100.00
41686;BME280;27370;42.764;23.432;2023-12-20T01:07:32;95914.69;;;-3.23;100.00
41686;BME280;27370;42.764;23.432;2023-12-20T01:09:58;95916.59;;;-2.97;100.00
41686;BME280;27370;42.764;23.432;2023-12-20T01:12:23;95918.94;;;-3.13;100.00
41686;BME280;27370;42.764;23.432;2023-12-20T01:14:49;95916.59;;;-2.97;100.00
41686;BME280;27370;42.764;23.432;2023-12-20T01:17:14;95915.97;;;-2.77;100.00
41686;BME280;27370;42.764;23.432;2023-12-20T01:19:40;95894.31;;;-2.96;100.00
41686;BME280;27370;42.764;23.432;2023-12-20T01:22:05;95897.13;;;-2.93;100.00
41686;BME280;27370;42.764;23.432;2023-12-20T01:24:31;95889.03;;;-3.05;100.00
41686;BME280;27370;42.764;23.432;2023-12-20T01:26:56;95893.53;;;-2.88;100.00
41686;BME280;27370;42.764;23.432;2023-12-20T01:29:22;95901.00;;;-2.64;100.00
41686;BME280;27370;42.764;23.432;2023-12-20T01:31:47;95896.47;;;-2.64;100.00
41686;BME280;27370;42.764;23.432;2023-12-20T01:34:13;95893.03;;;-2.64;100.00
41686;BME280;27370;42.764;23.432;2023-12-20T01:36:38;95833.84;;;-2.86;100.00
41686;BME280;27370;42.764;23.432;2023-12-20T01:39:04;95883.50;;;-2.48;100.00
41686;BME280;27370;42.764;23.432;2023-12-20T01:41:29;95883.47;;;-2.39;100.00
41686;BME280;27370;42.764;23.432;2023-12-20T01:43:55;95874.94;;;-2.54;100.00
41686;BME280;27370;42.764;23.432;2023-12-20T01:46:20;95875.91;;;-2.67;100.00
41686;BME280;27370;42.764;23.432;2023-12-20T01:48:47;95875.09;;;-2.59;100.00
41686;BME280;27370;42.764;23.432;2023-12-20T01:51:13;95873.22;;;-2.58;100.00
41686;BME280;27370;42.764;23.432;2023-12-20T01:53:41;95855.97;;;-2.82;100.00
41686;BME280;27370;42.764;23.432;2023-12-20T01:56:08;95861.56;;;-2.74;100.00
41686;BME280;27370;42.764;23.432;2023-12-20T01:58:34;95858.91;;;-2.66;100.00
41686;BME280;27370;42.764;23.432;2023-12-20T02:00:59;95843.69;;;-3.03;100.00
41686;BME280;27370;42.764;23.432;2023-12-20T02:03:27;95840.56;;;-3.05;100.00
41686;BME280;27370;42.764;23.432;2023-12-20T02:05:52;95853.47;;;-2.87;100.00
41686;BME280;27370;42.764;23.432;2023-12-20T02:08:18;95837.59;;;-2.87;100.00
41686;BME280;27370;42.764;23.432;2023-12-20T02:10:44;95849.72;;;-2.77;100.00
41686;BME280;27370;42.764;23.432;2023-12-20T02:13:09;95844.88;;;-2.75;100.00
41686;BME280;27370;42.764;23.432;2023-12-20T02:15:35;95835.22;;;-2.71;100.00
41686;BME280;27370;42.764;23.432;2023-12-20T02:18:03;95835.50;;;-2.64;100.00
41686;BME280;27370;42.764;23.432;2023-12-20T02:20:28;95832.13;;;-2.90;100.00
41686;BME280;27370;42.764;23.432;2023-12-20T02:22:54;95805.03;;;-3.04;100.00
41686;BME280;27370;42.764;23.432;2023-12-20T02:25:19;95749.00;;;-3.50;100.00
41686;BME280;27370;42.764;23.432;2023-12-20T02:27:45;95773.28;;;-3.22;100.00
41686;BME280;27370;42.764;23.432;2023-12-20T02:30:11;95817.28;;;-2.65;100.00
41686;BME280;27370;42.764;23.432;2023-12-20T02:32:36;95786.78;;;-2.89;100.00
41686;BME280;27370;42.764;23.432;2023-12-20T02:35:02;95771.94;;;-2.81;100.00
41686;BME280;27370;42.764;23.432;2023-12-20T02:37:27;95831.13;;;-2.60;100.00
41686;BME280;27370;42.764;23.432;2023-12-20T02:39:53;95821.41;;;-2.94;100.00
41686;BME280;27370;42.764;23.432;2023-12-20T02:42:18;95820.13;;;-2.96;100.00
41686;BME280;27370;42.764;23.432;2023-12-20T02:44:44;95812.34;;;-2.84;100.00
41686;BME280;27370;42.764;23.432;2023-12-20T02:47:09;95812.28;;;-2.67;100.00
41686;BME280;27370;42.764;23.432;2023-12-20T02:49:35;95800.09;;;-2.59;100.00
41686;BME280;27370;42.764;23.432;2023-12-20T02:52:00;95791.88;;;-2.66;100.00
41686;BME280;27370;42.764;23.432;2023-12-20T02:54:26;95813.38;;;-2.68;100.00
41686;BME280;27370;42.764;23.432;2023-12-20T02:56:52;95816.19;;;-2.64;100.00
41686;BME280;27370;42.764;23.432;2023-12-20T02:59:17;95756.22;;;-2.86;100.00
41686;BME280;27370;42.764;23.432;2023-12-20T03:01:46;95828.25;;;-3.01;100.00
41686;BME280;27370;42.764;23.432;2023-12-20T03:04:12;95773.06;;;-2.99;100.00
41686;BME280;27370;42.764;23.432;2023-12-20T03:06:38;95811.88;;;-3.03;100.00
41686;BME280;27370;42.764;23.432;2023-12-20T03:09:04;95808.13;;;-2.85;100.00
41686;BME280;27370;42.764;23.432;2023-12-20T03:11:30;95805.66;;;-2.90;100.00
41686;BME280;27370;42.764;23.432;2023-12-20T03:13:56;95794.09;;;-2.94;100.00
41686;BME280;27370;42.764;23.432;2023-12-20T03:16:22;95805.78;;;-2.87;100.00
41686;BME280;27370;42.764;23.432;2023-12-20T03:18:47;95796.19;;;-3.26;100.00
41686;BME280;27370;42.764;23.432;2023-12-20T03:21:13;95795.25;;;-3.47;100.00
41686;BME280;27370;42.764;23.432;2023-12-20T03:23:38;95800.38;;;-3.08;100.00
41686;BME280;27370;42.764;23.432;2023-12-20T03:26:07;95807.69;;;-3.04;100.00
41686;BME280;27370;42.764;23.432;2023-12-20T03:28:33;95740.75;;;-3.74;100.00
41686;BME280;27370;42.764;23.432;2023-12-20T03:30:58;95755.25;;;-3.72;100.00
41686;BME280;27370;42.764;23.432;2023-12-20T03:33:24;95764.84;;;-4.10;100.00
41686;BME280;27370;42.764;23.432;2023-12-20T03:35:49;95779.66;;;-3.66;100.00
41686;BME280;27370;42.764;23.432;2023-12-20T03:38:15;95787.63;;;-3.83;100.00
41686;BME280;27370;42.764;23.432;2023-12-20T03:40:40;95799.63;;;-3.60;100.00
41686;BME280;27370;42.764;23.432;2023-12-20T03:43:06;95785.59;;;-3.43;100.00
41686;BME280;27370;42.764;23.432;2023-12-20T03:45:31;95782.31;;;-3.66;100.00
41686;BME280;27370;42.764;23.432;2023-12-20T03:47:57;95763.94;;;-3.62;100.00
41686;BME280;27370;42.764;23.432;2023-12-20T03:50:22;95790.59;;;-3.33;100.00
41686;BME280;27370;42.764;23.432;2023-12-20T03:52:48;95780.75;;;-3.24;100.00
41686;BME280;27370;42.764;23.432;2023-12-20T03:55:14;95794.16;;;-3.29;100.00
41686;BME280;27370;42.764;23.432;2023-12-20T03:57:40;95787.59;;;-3.40;100.00
41686;BME280;27370;42.764;23.432;2023-12-20T04:00:07;95779.53;;;-3.52;100.00
41686;BME280;27370;42.764;23.432;2023-12-20T04:02:38;95773.44;;;-3.70;100.00
41686;BME280;27370;42.764;23.432;2023-12-20T04:05:04;95783.41;;;-3.50;100.00
41686;BME280;27370;42.764;23.432;2023-12-20T04:07:30;95771.28;;;-3.59;100.00
41686;BME280;27370;42.764;23.432;2023-12-20T04:09:56;95760.84;;;-3.64;100.00
41686;BME280;27370;42.764;23.432;2023-12-20T04:12:21;95761.78;;;-3.52;100.00
41686;BME280;27370;42.764;23.432;2023-12-20T04:14:47;95754.28;;;-3.32;100.00
41686;BME280;27370;42.764;23.432;2023-12-20T04:17:12;95754.78;;;-3.39;100.00
41686;BME280;27370;42.764;23.432;2023-12-20T04:19:38;95756.16;;;-3.33;100.00
41686;BME280;27370;42.764;23.432;2023-12-20T04:22:03;95738.41;;;-3.32;100.00
41686;BME280;27370;42.764;23.432;2023-12-20T04:24:29;95738.72;;;-3.43;100.00
41686;BME280;27370;42.764;23.432;2023-12-20T04:26:54;95747.75;;;-3.44;100.00
41686;BME280;27370;42.764;23.432;2023-12-20T04:29:20;95754.16;;;-3.36;100.00
41686;BME280;27370;42.764;23.432;2023-12-20T04:31:45;95741.69;;;-3.35;100.00
41686;BME280;27370;42.764;23.432;2023-12-20T04:34:11;95746.53;;;-3.81;100.00
41686;BME280;27370;42.764;23.432;2023-12-20T04:36:36;95748.69;;;-3.48;100.00
41686;BME280;27370;42.764;23.432;2023-12-20T04:39:02;95758.50;;;-3.31;100.00
41686;BME280;27370;42.764;23.432;2023-12-20T04:41:28;95696.25;;;-3.63;100.00
41686;BME280;27370;42.764;23.432;2023-12-20T04:43:53;95746.69;;;-3.60;100.00
41686;BME280;27370;42.764;23.432;2023-12-20T04:46:19;95747.63;;;-3.38;100.00
41686;BME280;27370;42.764;23.432;2023-12-20T04:48:44;95748.84;;;-3.45;100.00
41686;BME280;27370;42.764;23.432;2023-12-20T04:51:10;95733.44;;;-3.51;100.00
41686;BME280;27370;42.764;23.432;2023-12-20T04:53:36;95688.63;;;-4.08;100.00
41686;BME280;27370;42.764;23.432;2023-12-20T04:56:01;95744.66;;;-3.80;100.00
41686;BME280;27370;42.764;23.432;2023-12-20T04:58:27;95748.53;;;-3.69;100.00
41686;BME280;27370;42.764;23.432;2023-12-20T05:00:52;95692.34;;;-4.26;100.00
41686;BME280;27370;42.764;23.432;2023-12-20T05:03:18;95721.78;;;-3.93;100.00
41686;BME280;27370;42.764;23.432;2023-12-20T05:05:43;95732.94;;;-4.14;100.00
41686;BME280;27370;42.764;23.432;2023-12-20T05:08:09;95733.91;;;-3.75;100.00
41686;BME280;27370;42.764;23.432;2023-12-20T05:10:34;95722.56;;;-3.76;100.00
41686;BME280;27370;42.764;23.432;2023-12-20T05:13:01;95729.84;;;-3.90;100.00
41686;BME280;27370;42.764;23.432;2023-12-20T05:15:27;95720.06;;;-3.81;100.00
41686;BME280;27370;42.764;23.432;2023-12-20T05:17:52;95672.28;;;-4.19;100.00
41686;BME280;27370;42.764;23.432;2023-12-20T05:20:18;95716.00;;;-3.70;100.00
41686;BME280;27370;42.764;23.432;2023-12-20T05:22:43;95709.47;;;-3.63;100.00
41686;BME280;27370;42.764;23.432;2023-12-20T05:25:10;95716.47;;;-3.50;100.00
41686;BME280;27370;42.764;23.432;2023-12-20T05:27:36;95695.44;;;-3.38;100.00
41686;BME280;27370;42.764;23.432;2023-12-20T05:30:01;95693.56;;;-3.46;100.00
41686;BME280;27370;42.764;23.432;2023-12-20T05:32:27;95707.88;;;-3.30;100.00
41686;BME280;27370;42.764;23.432;2023-12-20T05:34:52;95709.94;;;-3.53;100.00
41686;BME280;27370;42.764;23.432;2023-12-20T05:37:18;95686.59;;;-3.59;100.00
41686;BME280;27370;42.764;23.432;2023-12-20T05:39:43;95692.94;;;-3.43;100.00
41686;BME280;27370;42.764;23.432;2023-12-20T05:42:09;95651.28;;;-3.72;100.00
41686;BME280;27370;42.764;23.432;2023-12-20T05:44:35;95644.72;;;-3.66;100.00
41686;BME280;27370;42.764;23.432;2023-12-20T05:47:00;95681.09;;;-3.28;100.00
41686;BME280;27370;42.764;23.432;2023-12-20T05:49:26;95694.75;;;-3.18;100.00
41686;BME280;27370;42.764;23.432;2023-12-20T05:51:51;95690.88;;;-3.12;100.00
41686;BME280;27370;42.764;23.432;2023-12-20T05:54:17;95688.25;;;-3.29;100.00
41686;BME280;27370;42.764;23.432;2023-12-20T05:56:43;95678.31;;;-3.49;100.00
41686;BME280;27370;42.764;23.432;2023-12-20T05:59:08;95634.09;;;-3.49;100.00
41686;BME280;27370;42.764;23.432;2023-12-20T06:01:34;95683.03;;;-2.99;100.00
41686;BME280;27370;42.764;23.432;2023-12-20T06:04:00;95630.66;;;-3.32;100.00
41686;BME280;27370;42.764;23.432;2023-12-20T06:06:25;95677.38;;;-2.89;100.00
41686;BME280;27370;42.764;23.432;2023-12-20T06:08:51;95670.88;;;-3.00;100.00
41686;BME280;27370;42.764;23.432;2023-12-20T06:11:16;95627.38;;;-3.29;100.00
41686;BME280;27370;42.764;23.432;2023-12-20T06:13:42;95674.56;;;-3.31;100.00
41686;BME280;27370;42.764;23.432;2023-12-20T06:16:07;95653.09;;;-3.00;100.00
41686;BME280;27370;42.764;23.432;2023-12-20T06:18:33;95651.09;;;-3.03;100.00
41686;BME280;27370;42.764;23.432;2023-12-20T06:20:59;95672.88;;;-2.97;100.00
41686;BME280;27370;42.764;23.432;2023-12-20T06:23:24;95668.22;;;-3.00;100.00
41686;BME280;27370;42.764;23.432;2023-12-20T06:25:50;95667.59;;;-2.97;100.00
41686;BME280;27370;42.764;23.432;2023-12-20T06:28:15;95669.72;;;-2.82;100.00
41686;BME280;27370;42.764;23.432;2023-12-20T06:30:41;95669.72;;;-2.82;100.00
41686;BME280;27370;42.764;23.432;2023-12-20T06:33:06;95622.34;;;-3.13;100.00
41686;BME280;27370;42.764;23.432;2023-12-20T06:35:32;95669.00;;;-2.62;100.00
41686;BME280;27370;42.764;23.432;2023-12-20T06:37:58;95602.31;;;-3.02;100.00
41686;BME280;27370;42.764;23.432;2023-12-20T06:40:23;95674.81;;;-2.68;100.00
41686;BME280;27370;42.764;23.432;2023-12-20T06:42:49;95672.22;;;-2.56;100.00
41686;BME280;27370;42.764;23.432;2023-12-20T06:45:14;95657.34;;;-2.69;100.00
41686;BME280;27370;42.764;23.432;2023-12-20T06:47:40;95680.28;;;-2.44;100.00
41686;BME280;27370;42.764;23.432;2023-12-20T06:50:06;95677.50;;;-2.48;100.00
41686;BME280;27370;42.764;23.432;2023-12-20T06:52:34;95660.66;;;-2.52;100.00
41686;BME280;27370;42.764;23.432;2023-12-20T06:55:00;95666.41;;;-2.50;100.00
41686;BME280;27370;42.764;23.432;2023-12-20T06:57:25;95662.72;;;-2.57;100.00
41686;BME280;27370;42.764;23.432;2023-12-20T06:59:51;95667.75;;;-2.64;100.00
41686;BME280;27370;42.764;23.432;2023-12-20T07:02:17;95659.69;;;-2.77;100.00
41686;BME280;27370;42.764;23.432;2023-12-20T07:04:43;95649.34;;;-2.90;100.00
41686;BME280;27370;42.764;23.432;2023-12-20T07:07:08;95658.97;;;-2.86;100.00
41686;BME280;27370;42.764;23.432;2023-12-20T07:09:34;95615.94;;;-3.21;100.00
41686;BME280;27370;42.764;23.432;2023-12-20T07:11:59;95663.22;;;-2.93;100.00
41686;BME280;27370;42.764;23.432;2023-12-20T07:14:25;95614.84;;;-3.11;100.00
41686;BME280;27370;42.764;23.432;2023-12-20T07:16:51;95636.38;;;-2.83;100.00
41686;BME280;27370;42.764;23.432;2023-12-20T07:19:16;95638.69;;;-2.82;100.00
41686;BME280;27370;42.764;23.432;2023-12-20T07:21:42;95639.13;;;-2.71;100.00
41686;BME280;27370;42.764;23.432;2023-12-20T07:24:07;95654.25;;;-2.51;100.00
41686;BME280;27370;42.764;23.432;2023-12-20T07:26:33;95639.41;;;-2.43;100.00
41686;BME280;27370;42.764;23.432;2023-12-20T07:28:59;95547.91;;;-2.91;100.00
41686;BME280;27370;42.764;23.432;2023-12-20T07:31:25;95588.47;;;-2.49;100.00
41686;BME280;27370;42.764;23.432;2023-12-20T07:33:50;95639.63;;;-2.06;100.00
41686;BME280;27370;42.764;23.432;2023-12-20T07:36:16;95640.66;;;-1.99;100.00
41686;BME280;27370;42.764;23.432;2023-12-20T07:38:41;95627.22;;;-1.81;100.00
41686;BME280;27370;42.764;23.432;2023-12-20T07:41:10;95628.28;;;-1.95;100.00
41686;BME280;27370;42.764;23.432;2023-12-20T07:43:36;95636.22;;;-1.74;100.00
41686;BME280;27370;42.764;23.432;2023-12-20T07:46:08;95622.09;;;-1.66;100.00
41686;BME280;27370;42.764;23.432;2023-12-20T07:48:35;95622.75;;;-1.69;100.00
41686;BME280;27370;42.764;23.432;2023-12-20T07:51:01;95618.97;;;-1.80;100.00
41686;BME280;27370;42.764;23.432;2023-12-20T07:53:27;95608.38;;;-2.01;100.00
41686;BME280;27370;42.764;23.432;2023-12-20T07:55:52;95618.63;;;-1.78;100.00
41686;BME280;27370;42.764;23.432;2023-12-20T07:58:18;95585.25;;;-1.79;100.00
41686;BME280;27370;42.764;23.432;2023-12-20T08:00:44;95567.06;;;-1.90;100.00
41686;BME280;27370;42.764;23.432;2023-12-20T08:03:09;95609.88;;;-1.46;100.00
41686;BME280;27370;42.764;23.432;2023-12-20T08:05:35;95554.50;;;-2.34;100.00
41686;BME280;27370;42.764;23.432;2023-12-20T08:08:01;95618.75;;;-1.75;100.00
41686;BME280;27370;42.764;23.432;2023-12-20T08:10:26;95607.66;;;-1.56;100.00
41686;BME280;27370;42.764;23.432;2023-12-20T08:12:54;95615.09;;;-1.37;100.00
41686;BME280;27370;42.764;23.432;2023-12-20T08:15:20;95617.22;;;-1.18;100.00
41686;BME280;27370;42.764;23.432;2023-12-20T08:17:45;95597.97;;;-1.28;100.00
41686;BME280;27370;42.764;23.432;2023-12-20T08:20:11;95601.28;;;-1.18;100.00
41686;BME280;27370;42.764;23.432;2023-12-20T08:22:36;95570.50;;;-1.19;100.00
41686;BME280;27370;42.764;23.432;2023-12-20T08:25:02;95596.66;;;-0.85;100.00
41686;BME280;27370;42.764;23.432;2023-12-20T08:27:28;95595.44;;;-0.87;100.00
41686;BME280;27370;42.764;23.432;2023-12-20T08:29:53;95567.25;;;-1.62;100.00
41686;BME280;27370;42.764;23.432;2023-12-20T08:32:19;95590.56;;;-1.67;100.00
41686;BME280;27370;42.764;23.432;2023-12-20T08:34:44;95581.41;;;-2.03;100.00
41686;BME280;27370;42.764;23.432;2023-12-20T08:37:10;95580.28;;;-1.69;100.00
41686;BME280;27370;42.764;23.432;2023-12-20T08:39:35;95574.69;;;-1.43;100.00
41686;BME280;27370;42.764;23.432;2023-12-20T08:42:01;95538.09;;;-1.82;100.00
41686;BME280;27370;42.764;23.432;2023-12-20T08:44:26;95575.56;;;-1.39;100.00
41686;BME280;27370;42.764;23.432;2023-12-20T08:46:52;95572.41;;;-1.32;100.00
41686;BME280;27370;42.764;23.432;2023-12-20T08:49:17;95563.44;;;-1.28;100.00
41686;BME280;27370;42.764;23.432;2023-12-20T08:51:43;95567.09;;;-1.20;100.00
41686;BME280;27370;42.764;23.432;2023-12-20T08:54:09;95530.06;;;-1.62;100.00
41686;BME280;27370;42.764;23.432;2023-12-20T08:56:34;95557.34;;;-1.28;100.00
41686;BME280;27370;42.764;23.432;2023-12-20T08:59:00;95511.81;;;-1.63;100.00
41686;BME280;27370;42.764;23.432;2023-12-20T09:01:25;95538.63;;;-1.19;100.00
41686;BME280;27370;42.764;23.432;2023-12-20T09:03:51;95528.78;;;-1.31;100.00
41686;BME280;27370;42.764;23.432;2023-12-20T09:06:16;95483.66;;;-1.56;100.00
41686;BME280;27370;42.764;23.432;2023-12-20T09:08:42;95513.38;;;-1.38;100.00
41686;BME280;27370;42.764;23.432;2023-12-20T09:11:07;95512.88;;;-1.31;100.00
41686;BME280;27370;42.764;23.432;2023-12-20T09:13:33;95520.59;;;-1.26;100.00
41686;BME280;27370;42.764;23.432;2023-12-20T09:15:59;95504.22;;;-1.40;100.00
41686;BME280;27370;42.764;23.432;2023-12-20T09:18:24;95508.06;;;-2.20;100.00
41686;BME280;27370;42.764;23.432;2023-12-20T09:20:50;95507.09;;;-1.58;100.00
41686;BME280;27370;42.764;23.432;2023-12-20T09:23:15;95480.53;;;-1.58;100.00
41686;BME280;27370;42.764;23.432;2023-12-20T09:25:42;95387.97;;;-1.71;100.00
41686;BME280;27370;42.764;23.432;2023-12-20T09:28:07;95478.94;;;-0.98;100.00
41686;BME280;27370;42.764;23.432;2023-12-20T09:30:33;95470.09;;;-0.89;100.00
41686;BME280;27370;42.764;23.432;2023-12-20T09:32:59;95465.16;;;-0.63;100.00
41686;BME280;27370;42.764;23.432;2023-12-20T09:35:24;95456.66;;;-0.81;100.00
41686;BME280;27370;42.764;23.432;2023-12-20T09:37:51;95443.25;;;-1.25;100.00
41686;BME280;27370;42.764;23.432;2023-12-20T09:40:18;95445.78;;;-0.76;100.00
41686;BME280;27370;42.764;23.432;2023-12-20T09:45:47;95394.41;;;-0.80;100.00
41686;BME280;27370;42.764;23.432;2023-12-20T09:48:17;95437.13;;;-0.73;100.00
41686;BME280;27370;42.764;23.432;2023-12-20T09:50:43;95403.16;;;-1.07;100.00
41686;BME280;27370;42.764;23.432;2023-12-20T09:53:10;95426.63;;;-1.09;100.00
41686;BME280;27370;42.764;23.432;2023-12-20T09:55:38;95401.13;;;-0.98;100.00
41686;BME280;27370;42.764;23.432;2023-12-20T09:58:05;95422.38;;;-0.98;100.00
41686;BME280;27370;42.764;23.432;2023-12-20T10:00:32;95328.75;;;-1.07;100.00
41686;BME280;27370;42.764;23.432;2023-12-20T10:02:59;95426.97;;;-0.27;100.00
41686;BME280;27370;42.764;23.432;2023-12-20T10:05:29;95407.44;;;-0.19;100.00
41686;BME280;27370;42.764;23.432;2023-12-20T10:07:55;95409.31;;;-0.04;100.00
41686;BME280;27370;42.764;23.432;2023-12-20T10:10:21;95408.38;;;0.05;100.00
41686;BME280;27370;42.764;23.432;2023-12-20T10:13:06;95417.06;;;0.17;100.00
41686;BME280;27370;42.764;23.432;2023-12-20T10:15:33;95399.81;;;0.11;100.00
41686;BME280;27370;42.764;23.432;2023-12-20T10:17:59;95390.44;;;0.17;100.00
41686;BME280;27370;42.764;23.432;2023-12-20T10:20:25;95395.94;;;-0.67;100.00
41686;BME280;27370;42.764;23.432;2023-12-20T10:22:51;95384.59;;;-0.20;100.00
41686;BME280;27370;42.764;23.432;2023-12-20T10:25:22;95365.63;;;-0.03;100.00
41686;BME280;27370;42.764;23.432;2023-12-20T10:27:47;95361.59;;;-0.72;100.00
41686;BME280;27370;42.764;23.432;2023-12-20T10:30:14;95364.88;;;-0.47;100.00
41686;BME280;27370;42.764;23.432;2023-12-20T10:32:39;95368.97;;;-0.06;100.00
41686;BME280;27370;42.764;23.432;2023-12-20T10:35:06;95361.47;;;0.32;100.00
41686;BME280;27370;42.764;23.432;2023-12-20T10:37:36;95342.44;;;-0.34;100.00
41686;BME280;27370;42.764;23.432;2023-12-20T10:40:04;95347.56;;;0.22;100.00
41686;BME280;27370;42.764;23.432;2023-12-20T10:42:31;95337.72;;;-0.40;100.00
41686;BME280;27370;42.764;23.432;2023-12-20T10:44:59;95330.03;;;0.37;100.00
41686;BME280;27370;42.764;23.432;2023-12-20T10:47:26;95324.63;;;0.88;100.00
41686;BME280;27370;42.764;23.432;2023-12-20T10:49:54;95323.06;;;1.06;100.00
41686;BME280;27370;42.764;23.432;2023-12-20T10:52:23;95331.00;;;1.03;100.00
41686;BME280;27370;42.764;23.432;2023-12-20T10:54:49;95319.94;;;1.01;100.00
41686;BME280;27370;42.764;23.432;2023-12-20T10:57:18;95314.03;;;1.11;100.00
41686;BME280;27370;42.764;23.432;2023-12-20T10:59:44;95272.94;;;0.93;100.00
41686;BME280;27370;42.764;23.432;2023-12-20T11:02:12;95294.41;;;1.00;100.00
41686;BME280;27370;42.764;23.432;2023-12-20T11:04:53;95254.78;;;0.59;100.00
41686;BME280;27370;42.764;23.432;2023-12-20T11:07:31;95307.91;;;1.10;100.00
41686;BME280;27370;42.764;23.432;2023-12-20T11:10:15;95297.09;;;1.22;100.00
41686;BME280;27370;42.764;23.432;2023-12-20T11:12:57;95232.09;;;0.88;100.00
41686;BME280;27370;42.764;23.432;2023-12-20T11:15:27;95284.44;;;0.97;100.00
41686;BME280;27370;42.764;23.432;2023-12-20T11:17:58;95272.56;;;1.13;100.00
41686;BME280;27370;42.764;23.432;2023-12-20T11:20:24;95259.00;;;1.22;100.00
41686;BME280;27370;42.764;23.432;2023-12-20T11:23:00;95260.84;;;1.41;100.00
41686;BME280;27370;42.764;23.432;2023-12-20T11:25:26;95267.31;;;1.17;100.00
41686;BME280;27370;42.764;23.432;2023-12-20T11:28:12;95260.13;;;-0.11;100.00
41686;BME280;27370;42.764;23.432;2023-12-20T11:30:57;95168.91;;;-0.94;100.00
41686;BME280;27370;42.764;23.432;2023-12-20T11:33:30;95248.59;;;0.36;100.00
41686;BME280;27370;42.764;23.432;2023-12-20T11:35:57;95240.19;;;0.73;100.00
41686;BME280;27370;42.764;23.432;2023-12-20T11:38:23;95237.00;;;1.06;100.00
41686;BME280;27370;42.764;23.432;2023-12-20T11:40:50;95177.00;;;0.93;100.00
41686;BME280;27370;42.764;23.432;2023-12-20T11:43:38;95222.50;;;0.84;100.00
41686;BME280;27370;42.764;23.432;2023-12-20T11:46:08;95173.47;;;0.08;100.00
41686;BME280;27370;42.764;23.432;2023-12-20T11:48:37;95187.69;;;0.54;100.00
41686;BME280;27370;42.764;23.432;2023-12-20T11:51:09;95209.34;;;0.52;100.00
41686;BME280;27370;42.764;23.432;2023-12-20T11:53:34;95191.88;;;0.74;100.00
41686;BME280;27370;42.764;23.432;2023-12-20T11:56:03;95183.22;;;1.00;100.00
41686;BME280;27370;42.764;23.432;2023-12-20T11:58:29;95186.59;;;1.20;100.00
41686;BME280;27370;42.764;23.432;2023-12-20T12:00:55;95154.00;;;1.07;100.00
41686;BME280;27370;42.764;23.432;2023-12-20T12:03:20;95051.44;;;0.52;100.00
41686;BME280;27370;42.764;23.432;2023-12-20T12:05:47;95167.56;;;1.21;100.00
41686;BME280;27370;42.764;23.432;2023-12-20T12:08:13;95164.84;;;1.18;100.00
41686;BME280;27370;42.764;23.432;2023-12-20T12:10:39;95156.66;;;1.30;100.00
41686;BME280;27370;42.764;23.432;2023-12-20T12:13:05;95153.81;;;1.19;100.00
41686;BME280;27370;42.764;23.432;2023-12-20T12:15:30;95140.94;;;1.25;100.00
41686;BME280;27370;42.764;23.432;2023-12-20T12:17:56;95159.50;;;0.95;100.00
41686;BME280;27370;42.764;23.432;2023-12-20T12:20:23;95157.66;;;1.22;100.00
41686;BME280;27370;42.764;23.432;2023-12-20T12:23:05;95096.16;;;0.66;100.00
41686;BME280;27370;42.764;23.432;2023-12-20T12:25:32;95099.63;;;0.05;100.00
41686;BME280;27370;42.764;23.432;2023-12-20T12:27:58;95146.44;;;0.06;100.00
41686;BME280;27370;42.764;23.432;2023-12-20T12:30:25;95146.25;;;-0.02;100.00
41686;BME280;27370;42.764;23.432;2023-12-20T12:32:51;95158.97;;;-0.65;100.00
41686;BME280;27370;42.764;23.432;2023-12-20T12:35:18;95149.38;;;0.01;100.00
41686;BME280;27370;42.764;23.432;2023-12-20T12:37:44;95148.44;;;0.12;100.00
41686;BME280;27370;42.764;23.432;2023-12-20T12:40:14;95133.25;;;0.13;100.00
41686;BME280;27370;42.764;23.432;2023-12-20T12:42:41;95144.97;;;-0.27;100.00
41686;BME280;27370;42.764;23.432;2023-12-20T12:45:07;95080.28;;;-0.31;100.00
41686;BME280;27370;42.764;23.432;2023-12-20T12:47:34;95131.84;;;-0.01;100.00
41686;BME280;27370;42.764;23.432;2023-12-20T12:49:59;95129.94;;;-0.19;100.00
41686;BME280;27370;42.764;23.432;2023-12-20T12:52:25;95134.09;;;0.36;100.00
41686;BME280;27370;42.764;23.432;2023-12-20T12:54:52;95117.97;;;0.48;100.00
41686;BME280;27370;42.764;23.432;2023-12-20T12:57:18;95130.03;;;0.65;100.00
41686;BME280;27370;42.764;23.432;2023-12-20T12:59:45;95127.88;;;0.71;100.00
41686;BME280;27370;42.764;23.432;2023-12-20T13:02:14;95107.97;;;0.65;100.00
41686;BME280;27370;42.764;23.432;2023-12-20T13:04:40;95111.53;;;0.72;100.00
41686;BME280;27370;42.764;23.432;2023-12-20T13:07:07;95123.69;;;0.93;100.00
41686;BME280;27370;42.764;23.432;2023-12-20T13:09:33;95123.53;;;1.08;100.00